createdAt,value
2019-05-26T00:02:46.006Z,100042.62
2019-05-26T00:06:52.794Z,100040.87
2019-05-26T00:10:59.565Z,100042.50
2019-05-26T00:15:07.796Z,100035.54
2019-05-26T00:19:14.673Z,100031.04
2019-05-26T00:23:21.455Z,100031.61
2019-05-26T00:27:28.292Z,100032.61
2019-05-26T00:31:35.133Z,100027.66
2019-05-26T00:35:41.867Z,100022.72
2019-05-26T00:39:48.689Z,100015.81
2019-05-26T00:43:55.504Z,100014.11
2019-05-26T00:48:02.274Z,100010.88
2019-05-26T00:52:09.162Z,100021.25
2019-05-26T00:56:16.092Z,100019.41
2019-05-26T01:00:40.100Z,100021.27
2019-05-26T01:04:46.818Z,100027.72
2019-05-26T01:08:53.615Z,100025.13
2019-05-26T01:13:00.313Z,100023.34
2019-05-26T01:17:07.119Z,100030.34
2019-05-26T01:21:13.978Z,100027.06
2019-05-26T01:25:20.724Z,100029.16
2019-05-26T01:29:27.465Z,100025.44
2019-05-26T01:33:35.146Z,100025.02
2019-05-26T01:37:42.696Z,100027.25
2019-05-26T01:41:49.562Z,100027.09
2019-05-26T01:45:56.353Z,100026.34
2019-05-26T01:50:03.053Z,100035.09
2019-05-26T01:54:09.819Z,100034.86
2019-05-26T01:58:16.518Z,100028.00
2019-05-26T02:02:23.380Z,100028.14
2019-05-26T02:06:30.213Z,100025.47
2019-05-26T02:10:37.033Z,100024.61
2019-05-26T02:14:43.918Z,100015.86
2019-05-26T02:18:50.698Z,100018.52
2019-05-26T02:22:57.413Z,100019.05
2019-05-26T02:27:04.149Z,100025.62
2019-05-26T02:31:10.984Z,100032.97
2019-05-26T02:35:18.027Z,100029.09
2019-05-26T02:39:24.906Z,100027.99
2019-05-26T02:43:31.718Z,100026.36
2019-05-26T02:47:38.446Z,100024.59
2019-05-26T02:51:45.190Z,100026.44
2019-05-26T02:55:52.201Z,100030.22
2019-05-26T02:59:59.004Z,100027.33
2019-05-26T03:04:05.757Z,100023.63
2019-05-26T03:08:13.033Z,100029.17
2019-05-26T03:12:22.244Z,100021.91
2019-05-26T03:16:34.125Z,100026.36
2019-05-26T03:20:41.696Z,100025.67
2019-05-26T03:24:53.052Z,100030.19
2019-05-26T03:29:00.338Z,100024.16
2019-05-26T03:33:07.417Z,100030.87
2019-05-26T03:37:14.143Z,100033.55
2019-05-26T03:41:21.212Z,100039.84
2019-05-26T03:46:15.802Z,100037.81
2019-05-26T03:50:22.579Z,100035.38
2019-05-26T03:54:29.369Z,100032.27
2019-05-26T03:58:36.112Z,100029.09
2019-05-26T04:02:42.935Z,100029.42
2019-05-26T04:06:49.940Z,100030.36
2019-05-26T04:10:56.667Z,100030.21
2019-05-26T04:15:03.451Z,100027.93
2019-05-26T04:19:10.317Z,100032.91
2019-05-26T04:23:17.031Z,100025.89
2019-05-26T04:27:23.867Z,100026.05
2019-05-26T04:31:30.736Z,100031.14
2019-05-26T04:35:37.627Z,100028.70
2019-05-26T04:39:44.383Z,100027.45
2019-05-26T04:43:51.131Z,100026.16
2019-05-26T04:47:59.465Z,100028.03
2019-05-26T04:52:06.324Z,100032.39
2019-05-26T04:56:13.076Z,100034.75
2019-05-26T05:00:21.218Z,100042.20
2019-05-26T05:04:28.298Z,100046.86
2019-05-26T05:08:35.177Z,100042.69
2019-05-26T05:12:41.950Z,100049.94
2019-05-26T05:17:39.769Z,100051.39
2019-05-26T05:21:46.601Z,100051.86
2019-05-26T05:25:53.378Z,100054.36
2019-05-26T05:30:00.416Z,100057.31
2019-05-26T05:34:07.154Z,100055.61
2019-05-26T05:38:14.018Z,100059.66
2019-05-26T05:42:20.737Z,100060.02
2019-05-26T05:46:29.664Z,100058.14
2019-05-26T05:50:39.130Z,100060.78
2019-05-26T05:54:45.018Z,100062.49
2019-05-26T05:58:51.738Z,100059.51
2019-05-26T06:02:58.753Z,100065.37
2019-05-26T06:07:06.785Z,100059.95
2019-05-26T06:11:16.805Z,100056.09
2019-05-26T06:15:22.370Z,100050.78
2019-05-26T06:19:29.202Z,100055.47
2019-05-26T06:23:37.127Z,100046.91
2019-05-26T06:27:44.109Z,100052.28
2019-05-26T06:31:51.086Z,100050.80
2019-05-26T06:35:58.012Z,100051.32
2019-05-26T06:40:05.399Z,100051.05
2019-05-26T06:44:12.312Z,100052.88
2019-05-26T06:48:19.067Z,100055.33
2019-05-26T06:52:26.461Z,100048.25
2019-05-26T06:56:33.465Z,100056.74
2019-05-26T07:00:42.028Z,100058.02
2019-05-26T07:04:48.868Z,100053.89
2019-05-26T07:08:55.578Z,100055.05
2019-05-26T07:13:02.327Z,100052.84
2019-05-26T07:17:09.148Z,100058.80
2019-05-26T07:21:15.999Z,100055.13
2019-05-26T07:25:22.898Z,100057.72
2019-05-26T07:29:29.771Z,100057.67
2019-05-26T07:33:36.493Z,100057.75
2019-05-26T07:37:43.378Z,100056.22
2019-05-26T07:42:08.255Z,100062.66
2019-05-26T07:45:58.742Z,100056.47
2019-05-26T07:50:06.256Z,100058.14
2019-05-26T07:54:25.195Z,100052.89
2019-05-26T07:58:21.592Z,100055.38
2019-05-26T08:02:28.395Z,100053.94
2019-05-26T08:06:35.312Z,100058.38
2019-05-26T08:10:45.499Z,100044.15
2019-05-26T08:14:54.496Z,100049.17
2019-05-26T08:19:01.722Z,100044.22
2019-05-26T08:23:08.600Z,100044.66
2019-05-26T08:27:15.383Z,100039.83
2019-05-26T08:31:22.236Z,100036.49
2019-05-26T08:35:29.219Z,100026.78
2019-05-26T08:39:36.256Z,100036.24
2019-05-26T08:43:43.148Z,100032.44
2019-05-26T08:47:49.994Z,100026.88
2019-05-26T08:51:56.716Z,100032.27
2019-05-26T08:56:03.469Z,100030.62
2019-05-26T09:00:10.893Z,100026.09
2019-05-26T09:04:19.038Z,100025.20
2019-05-26T09:08:27.469Z,100023.27
2019-05-26T09:12:35.472Z,100015.87
2019-05-26T09:16:42.334Z,100015.87
2019-05-26T09:20:49.259Z,100022.59
2019-05-26T09:24:56.077Z,100022.31
2019-05-26T09:29:02.911Z,100023.70
2019-05-26T09:33:09.814Z,100000.53
2019-05-26T09:37:16.660Z,100000.53
2019-05-26T09:41:23.453Z,100000.37
2019-05-26T09:45:30.228Z,100003.34
2019-05-26T09:49:37.208Z,100001.77
2019-05-26T09:53:44.108Z,100005.18
2019-05-26T09:57:51.021Z,99994.78
2019-05-26T10:01:57.832Z,99990.61
2019-05-26T10:06:04.848Z,99993.55
2019-05-26T10:10:11.976Z,99979.19
2019-05-26T10:14:18.899Z,99977.70
2019-05-26T10:18:25.787Z,99974.61
2019-05-26T10:22:32.547Z,99981.03
2019-05-26T10:26:39.359Z,99981.03
2019-05-26T10:30:46.038Z,99993.80
2019-05-26T10:34:52.784Z,99975.72
2019-05-26T10:38:59.666Z,99975.72
2019-05-26T10:43:06.654Z,99977.38
2019-05-26T10:47:14.485Z,99970.91
2019-05-26T10:51:21.315Z,99965.34
2019-05-26T10:55:28.166Z,99963.67
2019-05-26T10:59:35.225Z,99958.36
2019-05-26T11:03:42.562Z,99951.61
2019-05-26T11:07:51.754Z,99940.84
2019-05-26T11:11:58.889Z,99951.05
2019-05-26T11:16:05.952Z,99949.84
2019-05-26T11:20:18.144Z,99940.47
2019-05-26T11:24:58.217Z,99932.43
2019-05-26T11:29:50.364Z,99930.28
2019-05-26T11:34:01.841Z,99918.43
2019-05-26T11:43:26.204Z,99908.15
2019-05-26T11:47:37.431Z,99902.61
2019-05-26T11:51:48.567Z,99896.02
2019-05-26T11:55:57.127Z,99901.11
2019-05-26T12:00:08.410Z,99902.36
2019-05-26T12:04:17.175Z,99901.15
2019-05-26T12:08:28.314Z,99903.33
2019-05-26T12:12:35.386Z,99882.56
2019-05-26T12:16:43.968Z,99888.16
2019-05-26T12:20:52.050Z,99885.25
2019-05-26T12:25:01.592Z,99882.34
2019-05-26T12:29:08.328Z,99875.25
2019-05-26T12:33:15.370Z,99874.34
2019-05-26T12:37:31.229Z,99863.34
2019-05-26T12:41:44.284Z,99857.72
2019-05-26T12:45:53.793Z,99853.16
2019-05-26T12:50:01.027Z,99852.66
2019-05-26T12:54:09.595Z,99856.00
2019-05-26T12:58:16.681Z,99848.55
2019-05-26T13:02:25.072Z,99838.10
2019-05-26T13:06:32.241Z,99842.83
2019-05-26T13:10:41.252Z,99839.09
2019-05-26T13:14:56.980Z,99828.22
2019-05-26T13:19:06.868Z,99838.83
2019-05-26T13:23:10.721Z,99838.34
2019-05-26T13:27:22.582Z,99825.70
2019-05-26T13:31:29.831Z,99817.37
2019-05-26T13:35:36.769Z,99816.61
2019-05-26T13:39:48.187Z,99820.17
2019-05-26T13:43:55.194Z,99806.28
2019-05-26T13:48:04.267Z,99810.02
2019-05-26T13:52:49.459Z,99813.44
2019-05-26T13:56:58.155Z,99793.18
2019-05-26T14:01:06.588Z,99801.65
2019-05-26T14:05:16.653Z,99795.26
2019-05-26T14:09:23.723Z,99787.92
2019-05-26T14:13:30.706Z,99783.73
2019-05-26T14:17:43.575Z,99784.27
2019-05-26T14:21:50.553Z,99774.22
2019-05-26T14:25:57.594Z,99785.20
2019-05-26T14:30:04.789Z,99772.92
2019-05-26T14:34:11.763Z,99783.15
2019-05-26T14:38:18.565Z,99775.66
2019-05-26T14:42:25.381Z,99768.56
2019-05-26T14:46:32.215Z,99757.89
2019-05-26T14:50:40.824Z,99743.89
2019-05-26T14:54:47.951Z,99751.17
2019-05-26T14:58:54.775Z,99733.90
2019-05-26T15:03:01.889Z,99732.71
2019-05-26T15:07:13.449Z,99738.23
2019-05-26T15:11:22.715Z,99725.06
2019-05-26T15:15:34.982Z,99723.30
2019-05-26T15:19:41.434Z,99722.91
2019-05-26T15:23:53.995Z,99711.14
2019-05-26T15:28:01.165Z,99712.47
2019-05-26T15:32:08.304Z,99715.33
2019-05-26T15:36:16.147Z,99705.39
2019-05-26T15:40:27.256Z,99702.61
2019-05-26T15:44:34.429Z,99704.73
2019-05-26T15:48:46.011Z,99694.05
2019-05-26T15:52:53.109Z,99692.06
2019-05-26T15:57:01.695Z,99683.36
2019-05-26T16:01:09.203Z,99687.58
2019-05-26T16:05:16.667Z,99676.90
2019-05-26T16:09:26.348Z,99678.72
2019-05-26T16:13:36.617Z,99665.90
2019-05-26T16:17:44.033Z,99668.72
2019-05-26T16:21:51.946Z,99661.69
2019-05-26T16:25:59.179Z,99667.88
2019-05-26T16:30:14.809Z,99660.92
2019-05-26T16:34:22.185Z,99664.09
2019-05-26T16:38:31.291Z,99654.78
2019-05-26T16:42:38.357Z,99652.25
2019-05-26T16:46:55.957Z,99636.08
2019-05-26T16:50:56.527Z,99639.10
2019-05-26T16:55:08.331Z,99636.92
2019-05-26T16:59:15.621Z,99635.19
2019-05-26T17:03:22.674Z,99636.08
2019-05-26T17:07:32.897Z,99644.84
2019-05-26T17:11:39.886Z,99629.52
2019-05-26T17:15:48.467Z,99630.39
2019-05-26T17:19:55.673Z,99628.94
2019-05-26T17:24:02.905Z,99622.73
2019-05-26T17:28:09.694Z,99629.47
2019-05-26T17:32:18.224Z,99623.27
2019-05-26T17:36:25.090Z,99617.62
2019-05-26T17:40:33.854Z,99618.33
2019-05-26T17:44:43.676Z,99614.57
2019-05-26T17:48:50.623Z,99617.15
2019-05-26T17:52:57.553Z,99627.36
2019-05-26T17:57:04.357Z,99620.72
2019-05-26T18:01:11.163Z,99623.41
2019-05-26T18:05:18.244Z,99616.84
2019-05-26T18:09:41.483Z,99615.07
2019-05-26T18:13:36.396Z,99622.86
2019-05-26T18:17:47.549Z,99607.81
2019-05-26T18:21:52.112Z,99609.52
2019-05-26T18:25:58.978Z,99607.66
2019-05-26T18:30:06.583Z,99606.09
2019-05-26T18:34:13.465Z,99602.45
2019-05-26T18:38:20.394Z,99610.26
2019-05-26T18:42:27.297Z,99607.59
2019-05-26T18:46:34.237Z,99606.25
2019-05-26T18:50:41.205Z,99607.31
2019-05-26T18:54:49.238Z,99608.66
2019-05-26T18:58:56.177Z,99603.35
2019-05-26T19:03:02.924Z,99595.36
2019-05-26T19:07:09.911Z,99599.61
2019-05-26T19:11:16.748Z,99601.72
2019-05-26T19:15:23.500Z,99595.11
2019-05-26T19:19:30.733Z,99590.31
2019-05-26T19:23:37.887Z,99595.63
2019-05-26T19:27:47.113Z,99600.27
2019-05-26T19:31:54.119Z,99600.64
2019-05-26T19:36:00.989Z,99602.53
2019-05-26T19:40:08.473Z,99594.88
2019-05-26T19:44:15.795Z,99598.96
2019-05-26T19:48:35.017Z,99602.71
2019-05-26T19:52:31.332Z,99599.84
2019-05-26T19:56:38.923Z,99601.73
2019-05-26T20:00:45.989Z,99596.34
2019-05-26T20:04:53.440Z,99604.98
2019-05-26T20:09:00.227Z,99597.22
2019-05-26T20:13:07.108Z,99600.17
2019-05-26T20:17:13.985Z,99605.34
2019-05-26T20:21:20.736Z,99605.16
2019-05-26T20:25:27.521Z,99600.25
2019-05-26T20:29:44.445Z,99600.53
2019-05-26T20:33:55.332Z,99603.00
2019-05-26T20:38:05.068Z,99598.16
2019-05-26T20:42:16.510Z,99597.77
2019-05-26T20:46:23.417Z,99595.39
2019-05-26T20:50:30.301Z,99598.34
2019-05-26T20:54:37.527Z,99591.17
2019-05-26T20:58:44.531Z,99593.29
2019-05-26T21:02:51.435Z,99586.06
2019-05-26T21:06:59.337Z,99585.02
2019-05-26T21:11:06.000Z,99582.92
2019-05-26T21:15:13.115Z,99588.30
2019-05-26T21:19:20.107Z,99584.02
2019-05-26T21:23:26.928Z,99582.42
2019-05-26T21:27:33.610Z,99573.56
2019-05-26T21:31:43.518Z,99569.30
2019-05-26T21:35:50.414Z,99568.52
2019-05-26T21:39:57.234Z,99572.00
2019-05-26T21:44:04.036Z,99569.87
2019-05-26T21:48:10.836Z,99561.00
2019-05-26T21:52:17.675Z,99561.82
2019-05-26T21:56:24.558Z,99561.83
2019-05-26T22:00:35.309Z,99562.39
2019-05-26T22:04:42.327Z,99561.84
2019-05-26T22:08:49.422Z,99561.84
2019-05-26T22:12:56.183Z,99561.84
2019-05-26T22:17:03.276Z,99558.91
2019-05-26T22:21:10.068Z,99557.84
2019-05-26T22:25:17.029Z,99548.95
2019-05-26T22:29:24.074Z,99546.25
2019-05-26T22:33:30.872Z,99537.66
2019-05-26T22:37:37.616Z,99541.07
2019-05-26T22:41:44.781Z,99533.54
2019-05-26T22:45:51.681Z,99534.85
2019-05-26T22:50:01.425Z,99535.64
2019-05-26T22:54:08.260Z,99530.56
2019-05-26T22:58:14.957Z,99534.80
2019-05-26T23:02:21.928Z,99527.76
2019-05-26T23:06:28.714Z,99530.17
2019-05-26T23:10:35.557Z,99520.98
2019-05-26T23:14:42.292Z,99516.67
2019-05-26T23:18:55.035Z,99514.23
2019-05-26T23:23:01.781Z,99511.49
2019-05-26T23:27:08.544Z,99512.00
2019-05-26T23:31:17.085Z,99506.88
2019-05-26T23:35:23.984Z,99503.92
2019-05-26T23:39:30.690Z,99502.76
2019-05-26T23:43:37.459Z,99495.80
2019-05-26T23:47:44.260Z,99496.87
2019-05-26T23:51:51.291Z,99495.80
2019-05-26T23:55:57.970Z,99488.56
